createdAt,value
2018-08-24T00:01:18.976Z,0.00
2018-08-24T00:02:18.973Z,0.00
2018-08-24T00:04:11.918Z,0.00
2018-08-24T00:05:11.916Z,0.00
2018-08-24T00:07:04.845Z,0.00
2018-08-24T00:08:04.859Z,0.00
2018-08-24T00:09:57.809Z,0.00
2018-08-24T00:10:57.808Z,0.00
2018-08-24T00:12:50.734Z,0.00
2018-08-24T00:13:50.750Z,0.00
2018-08-24T00:15:43.700Z,0.00
2018-08-24T00:16:43.697Z,0.00
2018-08-24T00:18:36.632Z,0.00
2018-08-24T00:19:36.645Z,0.00
2018-08-24T00:21:29.594Z,0.00
2018-08-24T00:22:29.590Z,0.00
2018-08-24T00:24:22.541Z,0.00
2018-08-24T00:25:22.534Z,0.00
2018-08-24T00:27:15.463Z,0.00
2018-08-24T00:28:15.478Z,0.00
2018-08-24T00:30:08.429Z,0.00
2018-08-24T00:31:08.423Z,0.00
2018-08-24T00:33:01.354Z,0.00
2018-08-24T00:34:01.372Z,0.00
2018-08-24T00:35:54.320Z,0.00
2018-08-24T00:36:54.314Z,0.00
2018-08-24T00:38:47.249Z,0.00
2018-08-24T00:39:47.259Z,0.00
2018-08-24T00:41:40.214Z,0.00
2018-08-24T00:42:40.221Z,0.00
2018-08-24T00:44:33.157Z,0.00
2018-08-24T00:45:33.150Z,0.00
2018-08-24T00:47:26.080Z,0.00
2018-08-24T00:48:26.092Z,0.00
2018-08-24T00:50:19.057Z,0.00
2018-08-24T00:51:19.053Z,0.00
2018-08-24T00:53:11.989Z,0.00
2018-08-24T00:54:12.040Z,0.00
2018-08-24T00:56:04.974Z,0.00
2018-08-24T00:57:04.959Z,0.00
2018-08-24T00:58:57.889Z,0.00
2018-08-24T00:59:57.907Z,0.00
2018-08-24T01:01:50.870Z,0.00
2018-08-24T01:02:50.869Z,0.00
2018-08-24T01:04:43.813Z,0.00
2018-08-24T01:05:43.805Z,0.00
2018-08-24T01:07:36.770Z,0.00
2018-08-24T01:08:36.751Z,0.00
2018-08-24T01:10:29.694Z,0.00
2018-08-24T01:11:29.687Z,0.00
2018-08-24T01:13:22.620Z,0.00
2018-08-24T01:14:22.641Z,0.00
2018-08-24T01:16:15.587Z,0.00
2018-08-24T01:17:15.583Z,0.00
2018-08-24T01:19:08.515Z,0.00
2018-08-24T01:20:08.524Z,0.00
2018-08-24T01:22:01.480Z,0.00
2018-08-24T01:23:01.474Z,0.00
2018-08-24T01:24:54.425Z,0.00
2018-08-24T01:25:54.418Z,0.00
2018-08-24T01:27:47.356Z,0.00
2018-08-24T01:28:47.368Z,0.00
2018-08-24T01:30:40.316Z,0.00
2018-08-24T01:31:40.313Z,0.00
2018-08-24T01:33:33.239Z,0.00
2018-08-24T01:34:33.252Z,0.00
2018-08-24T01:36:26.206Z,0.00
2018-08-24T01:37:26.191Z,0.00
2018-08-24T01:39:19.119Z,0.00
2018-08-24T01:40:19.136Z,0.00
2018-08-24T01:42:12.080Z,0.00
2018-08-24T01:43:12.075Z,0.00
2018-08-24T01:45:05.027Z,0.00
2018-08-24T01:46:05.028Z,0.00
2018-08-24T01:47:57.950Z,0.00
2018-08-24T01:48:57.960Z,0.00
2018-08-24T01:50:50.910Z,0.00
2018-08-24T01:51:50.904Z,0.00
2018-08-24T01:53:43.831Z,0.00
2018-08-24T02:24:14.591Z,0.00
2018-08-24T02:25:14.580Z,0.00
2018-08-24T02:27:07.509Z,0.00
2018-08-24T02:28:07.498Z,0.00
2018-08-24T02:30:00.430Z,0.00
2018-08-24T02:31:00.442Z,0.00
2018-08-24T02:32:53.369Z,0.00
2018-08-24T02:33:53.360Z,0.00
2018-08-24T02:35:46.289Z,0.00
2018-08-24T02:36:46.298Z,0.00
2018-08-24T02:38:39.244Z,0.00
2018-08-24T02:39:39.231Z,0.00
2018-08-24T02:41:32.178Z,0.00
2018-08-24T02:42:32.168Z,0.00
2018-08-24T02:44:25.096Z,0.00
2018-08-24T02:45:25.107Z,0.00
2018-08-24T02:47:18.058Z,0.00
2018-08-24T02:48:18.050Z,0.00
2018-08-24T02:50:10.975Z,0.00
2018-08-24T02:51:10.982Z,0.00
2018-08-24T02:53:03.929Z,0.00
2018-08-24T02:54:03.920Z,0.00
2018-08-24T02:55:56.848Z,0.00
2018-08-24T02:56:56.857Z,0.00
2018-08-24T02:58:49.804Z,0.00
2018-08-24T02:59:49.803Z,0.00
2018-08-24T03:01:42.746Z,0.00
2018-08-24T03:02:42.745Z,0.00
2018-08-24T03:04:35.666Z,0.00
2018-08-24T03:05:35.831Z,0.00
2018-08-24T03:07:28.627Z,0.00
2018-08-24T03:08:28.619Z,0.00
2018-08-24T03:10:21.557Z,0.00
2018-08-24T03:11:21.573Z,0.00
2018-08-24T03:13:14.529Z,0.00
2018-08-24T03:14:14.518Z,0.00
2018-08-24T03:16:07.499Z,0.00
2018-08-24T03:17:07.453Z,0.00
2018-08-24T03:19:00.403Z,0.00
2018-08-24T03:20:00.396Z,0.00
2018-08-24T03:21:53.344Z,0.00
2018-08-24T03:22:53.335Z,0.00
2018-08-24T03:24:46.276Z,0.00
2018-08-24T03:25:46.290Z,0.00
2018-08-24T03:27:39.230Z,0.00
2018-08-24T03:28:39.222Z,0.00
2018-08-24T03:30:32.148Z,0.00
2018-08-24T03:31:32.167Z,0.00
2018-08-24T03:33:25.108Z,0.00
2018-08-24T03:34:25.101Z,0.00
2018-08-24T03:36:18.026Z,0.00
2018-08-24T03:37:18.042Z,0.00
2018-08-24T03:39:10.986Z,0.00
2018-08-24T03:40:10.986Z,0.00
2018-08-24T03:42:03.934Z,0.00
2018-08-24T03:43:03.936Z,0.00
2018-08-24T03:44:56.869Z,0.00
2018-08-24T03:45:56.945Z,0.00
2018-08-24T03:47:49.828Z,0.00
2018-08-24T03:48:49.816Z,0.00
2018-08-24T03:50:42.740Z,0.00
2018-08-24T03:51:42.754Z,0.00
2018-08-24T03:53:35.727Z,0.00
2018-08-24T03:54:35.695Z,0.00
2018-08-24T03:56:28.625Z,0.00
2018-08-24T03:57:28.641Z,0.00
2018-08-24T03:59:21.587Z,0.00
2018-08-24T04:00:21.578Z,0.00
2018-08-24T04:02:14.528Z,0.00
2018-08-24T04:03:14.528Z,0.00
2018-08-24T04:05:07.451Z,0.00
2018-08-24T04:06:07.469Z,0.00
2018-08-24T04:08:00.419Z,0.00
2018-08-24T04:09:00.405Z,0.00
2018-08-24T04:10:53.331Z,0.00
2018-08-24T04:11:53.347Z,0.00
2018-08-24T04:13:46.297Z,4.00
2018-08-24T04:14:46.288Z,0.00
2018-08-24T04:16:39.220Z,4.00
2018-08-24T04:17:39.234Z,4.00
2018-08-24T04:19:32.250Z,8.00
2018-08-24T04:20:32.178Z,4.00
2018-08-24T04:22:25.124Z,8.00
2018-08-24T04:23:25.120Z,8.00
2018-08-24T04:25:18.041Z,16.00
2018-08-24T04:26:18.061Z,16.00
2018-08-24T04:28:11.004Z,20.00
2018-08-24T04:29:10.999Z,20.00
2018-08-24T04:31:03.933Z,24.00
2018-08-24T04:32:03.943Z,24.00
2018-08-24T04:33:56.899Z,28.00
2018-08-24T04:34:56.946Z,32.00
2018-08-24T04:36:49.818Z,40.00
2018-08-24T04:37:49.832Z,40.00
2018-08-24T04:39:42.782Z,48.00
2018-08-24T04:40:42.775Z,52.00
2018-08-24T04:42:35.728Z,60.00
2018-08-24T04:43:35.718Z,64.00
2018-08-24T04:45:28.651Z,72.00
2018-08-24T04:46:28.659Z,72.00
2018-08-24T04:48:21.611Z,92.00
2018-08-24T04:49:21.600Z,96.00
2018-08-24T04:51:14.530Z,116.00
2018-08-24T04:52:14.537Z,128.00
2018-08-24T04:54:07.491Z,148.00
2018-08-24T04:55:07.480Z,156.00
2018-08-24T04:57:00.411Z,152.00
2018-08-24T04:58:00.474Z,148.00
2018-08-24T04:59:53.372Z,148.00
2018-08-24T05:00:53.362Z,152.00
2018-08-24T05:02:46.326Z,164.00
2018-08-24T05:03:46.323Z,176.00
2018-08-24T05:05:39.282Z,204.00
2018-08-24T05:06:39.266Z,220.00
2018-08-24T05:08:32.215Z,252.00
2018-08-24T05:09:32.203Z,248.00
2018-08-24T05:11:25.137Z,248.00
2018-08-24T05:12:25.151Z,268.00
2018-08-24T05:14:18.099Z,272.00
2018-08-24T05:15:18.101Z,260.00
2018-08-24T05:17:11.019Z,196.00
2018-08-24T05:18:11.036Z,200.00
2018-08-24T05:20:03.980Z,256.00
2018-08-24T05:21:03.982Z,268.00
2018-08-24T05:22:56.926Z,296.00
2018-08-24T05:23:56.922Z,308.00
2018-08-24T05:25:49.852Z,272.00
2018-08-24T05:26:49.861Z,296.00
2018-08-24T05:28:42.817Z,364.00
2018-08-24T05:29:42.805Z,408.00
2018-08-24T05:31:35.731Z,456.00
2018-08-24T05:32:35.752Z,408.00
2018-08-24T05:34:28.715Z,400.00
2018-08-24T05:35:28.712Z,368.00
2018-08-24T05:37:21.636Z,288.00
2018-08-24T05:38:21.649Z,304.00
2018-08-24T05:40:14.596Z,288.00
2018-08-24T05:41:14.609Z,272.00
2018-08-24T05:43:07.532Z,376.00
2018-08-24T05:44:07.528Z,428.00
2018-08-24T05:46:00.455Z,408.00
2018-08-24T05:47:00.471Z,400.00
2018-08-24T05:48:53.481Z,424.00
2018-08-24T05:49:53.418Z,360.00
2018-08-24T05:51:46.341Z,340.00
2018-08-24T05:52:46.357Z,232.00
2018-08-24T05:54:39.302Z,272.00
2018-08-24T05:55:39.306Z,332.00
2018-08-24T05:57:32.225Z,304.00
2018-08-24T05:58:32.269Z,324.00
2018-08-24T06:00:25.180Z,444.00
2018-08-24T06:01:25.178Z,464.00
2018-08-24T06:03:18.128Z,664.00
2018-08-24T06:04:18.123Z,536.00
2018-08-24T06:06:11.079Z,352.00
2018-08-24T06:07:11.071Z,256.00
2018-08-24T06:09:04.025Z,212.00
2018-08-24T06:10:04.020Z,184.00
2018-08-24T06:11:56.941Z,196.00
2018-08-24T06:12:56.958Z,232.00
2018-08-24T06:14:49.907Z,396.00
2018-08-24T06:15:49.924Z,480.00
2018-08-24T06:17:42.831Z,400.00
2018-08-24T06:18:42.848Z,436.00
2018-08-24T06:20:35.795Z,536.00
2018-08-24T06:21:35.786Z,536.00
2018-08-24T06:23:28.751Z,616.00
2018-08-24T06:24:28.770Z,620.00
2018-08-24T06:26:21.656Z,528.00
2018-08-24T06:27:21.672Z,500.00
2018-08-24T06:29:14.625Z,492.00
2018-08-24T06:30:14.619Z,412.00
2018-08-24T06:32:07.546Z,332.00
2018-08-24T06:33:07.561Z,308.00
2018-08-24T06:35:00.515Z,272.00
2018-08-24T06:36:00.506Z,284.00
2018-08-24T06:37:53.432Z,232.00
2018-08-24T06:38:53.445Z,240.00
2018-08-24T06:40:46.395Z,344.00
2018-08-24T06:41:46.448Z,456.00
2018-08-24T06:43:39.353Z,456.00
2018-08-24T06:44:39.333Z,420.00
2018-08-24T06:46:32.262Z,360.00
2018-08-24T06:47:32.281Z,392.00
2018-08-24T06:49:25.227Z,432.00
2018-08-24T06:50:25.233Z,416.00
2018-08-24T06:52:18.145Z,620.00
2018-08-24T06:53:18.278Z,660.00
2018-08-24T06:55:11.108Z,608.00
2018-08-24T06:56:11.100Z,668.00
2018-08-24T06:58:04.028Z,560.00
2018-08-24T06:59:04.042Z,424.00
2018-08-24T07:00:56.990Z,336.00
2018-08-24T07:01:56.988Z,440.00
2018-08-24T07:03:49.930Z,708.00
2018-08-24T07:04:49.938Z,740.00
2018-08-24T07:06:42.889Z,612.00
2018-08-24T07:07:42.882Z,552.00
2018-08-24T07:09:35.831Z,680.00
2018-08-24T07:10:35.828Z,716.00
2018-08-24T07:12:28.750Z,856.00
2018-08-24T07:13:28.765Z,1020.00
2018-08-24T07:15:21.718Z,1116.00
2018-08-24T07:16:21.710Z,984.00
2018-08-24T07:18:14.641Z,884.00
2018-08-24T07:19:14.659Z,908.00
2018-08-24T07:21:07.600Z,1180.00
2018-08-24T07:22:07.597Z,1036.00
2018-08-24T07:24:00.525Z,1128.00
2018-08-24T07:25:00.541Z,1168.00
2018-08-24T07:26:53.483Z,1528.00
2018-08-24T07:27:53.479Z,1604.00
2018-08-24T07:29:46.431Z,1692.00
2018-08-24T07:30:46.429Z,1840.00
2018-08-24T07:32:39.359Z,2044.00
2018-08-24T07:33:39.370Z,2280.00
2018-08-24T07:35:32.324Z,2632.00
2018-08-24T07:36:32.314Z,2252.00
2018-08-24T07:38:25.252Z,1468.00
2018-08-24T07:39:25.261Z,2112.00
2018-08-24T07:41:18.265Z,2296.00
2018-08-24T07:42:18.207Z,1724.00
2018-08-24T07:44:11.140Z,1168.00
2018-08-24T07:45:11.156Z,1664.00
2018-08-24T07:47:04.102Z,2372.00
2018-08-24T07:48:04.095Z,2728.00
2018-08-24T07:49:57.044Z,3048.00
2018-08-24T07:50:57.189Z,2848.00
2018-08-24T07:52:49.994Z,2364.00
2018-08-24T07:53:49.985Z,2204.00
2018-08-24T07:55:42.935Z,1944.00
2018-08-24T07:56:42.925Z,1816.00
2018-08-24T07:58:35.851Z,1676.00
2018-08-24T07:59:35.865Z,1724.00
2018-08-24T08:01:28.827Z,1860.00
2018-08-24T08:02:28.820Z,2588.00
2018-08-24T08:04:21.750Z,4004.00
2018-08-24T08:05:21.771Z,4416.00
2018-08-24T08:07:14.712Z,4200.00
2018-08-24T08:08:14.712Z,4316.00
2018-08-24T08:10:07.662Z,4752.00
2018-08-24T08:11:07.654Z,4436.00
2018-08-24T08:13:00.590Z,3924.00
2018-08-24T08:14:00.597Z,3840.00
2018-08-24T08:15:53.554Z,3736.00
2018-08-24T08:16:53.557Z,4016.00
2018-08-24T08:18:46.482Z,4556.00
2018-08-24T08:19:46.505Z,5180.00
2018-08-24T08:21:39.450Z,5420.00
2018-08-24T08:22:39.447Z,5760.00
2018-08-24T08:24:32.416Z,5620.00
2018-08-24T08:25:32.392Z,4920.00
2018-08-24T08:27:25.340Z,4008.00
2018-08-24T08:28:25.341Z,3660.00
2018-08-24T08:30:18.290Z,3836.00
2018-08-24T08:31:18.284Z,3860.00
2018-08-24T08:33:11.216Z,4812.00
2018-08-24T08:34:11.258Z,4488.00
2018-08-24T08:36:04.187Z,3144.00
2018-08-24T08:37:04.177Z,2984.00
2018-08-24T08:38:57.158Z,4412.00
2018-08-24T08:39:57.125Z,4364.00
2018-08-24T08:41:50.076Z,5256.00
2018-08-24T08:42:50.073Z,4696.00
2018-08-24T08:44:43.011Z,4276.00
2018-08-24T08:45:43.017Z,3628.00
2018-08-24T08:47:35.967Z,3764.00
2018-08-24T08:48:35.967Z,3460.00
2018-08-24T08:50:28.913Z,4044.00
2018-08-24T08:51:28.905Z,4104.00
2018-08-24T08:53:21.887Z,3716.00
2018-08-24T08:54:21.856Z,3832.00
2018-08-24T08:56:14.842Z,4156.00
2018-08-24T08:57:14.843Z,3520.00
2018-08-24T08:59:07.743Z,3916.00
2018-08-24T09:00:07.759Z,4180.00
2018-08-24T09:02:00.710Z,4416.00
2018-08-24T09:03:00.707Z,3424.00
2018-08-24T09:04:53.629Z,3504.00
2018-08-24T09:05:53.679Z,4272.00
2018-08-24T09:07:46.602Z,3928.00
2018-08-24T09:08:46.602Z,3836.00
2018-08-24T09:10:39.555Z,3952.00
2018-08-24T09:11:39.547Z,4092.00
2018-08-24T09:13:32.476Z,4816.00
2018-08-24T09:14:32.494Z,5496.00
2018-08-24T09:16:25.450Z,5584.00
2018-08-24T09:17:25.450Z,3948.00
2018-08-24T09:19:18.375Z,4096.00
2018-08-24T09:20:18.392Z,2640.00
2018-08-24T09:22:11.347Z,3348.00
2018-08-24T09:23:11.345Z,3180.00
2018-08-24T09:25:04.286Z,3232.00
2018-08-24T09:26:04.298Z,3080.00
2018-08-24T09:27:57.251Z,2956.00
2018-08-24T09:28:57.251Z,3016.00
2018-08-24T09:30:50.183Z,3032.00
2018-08-24T09:31:50.199Z,3068.00
2018-08-24T09:33:43.148Z,3612.00
2018-08-24T09:34:43.143Z,3808.00
2018-08-24T09:36:36.094Z,3384.00
2018-08-24T09:37:36.090Z,3384.00
2018-08-24T09:39:29.023Z,3216.00
2018-08-24T09:40:29.040Z,2944.00
2018-08-24T09:42:21.998Z,1888.00
2018-08-24T09:43:21.996Z,2252.00
2018-08-24T09:45:14.927Z,2872.00
2018-08-24T09:46:14.942Z,2800.00
2018-08-24T09:48:07.901Z,2768.00
2018-08-24T09:49:07.926Z,2720.00
2018-08-24T09:51:00.828Z,2744.00
2018-08-24T09:52:00.846Z,2840.00
2018-08-24T09:53:53.799Z,2776.00
2018-08-24T09:54:53.789Z,2808.00
2018-08-24T09:56:46.797Z,3000.00
2018-08-24T09:57:46.750Z,3000.00
2018-08-24T09:59:39.675Z,2944.00
2018-08-24T10:00:39.693Z,2848.00
2018-08-24T10:02:32.657Z,4016.00
2018-08-24T10:03:32.654Z,4076.00
2018-08-24T10:05:25.587Z,3776.00
2018-08-24T10:06:25.618Z,3408.00
2018-08-24T10:08:18.543Z,3048.00
2018-08-24T10:09:18.542Z,3032.00
2018-08-24T10:11:11.486Z,3332.00
2018-08-24T10:12:11.503Z,3572.00
2018-08-24T10:14:04.455Z,4004.00
2018-08-24T10:15:04.453Z,4232.00
2018-08-24T10:16:57.410Z,4164.00
2018-08-24T10:17:57.410Z,3776.00
2018-08-24T10:19:50.332Z,3300.00
2018-08-24T10:20:50.348Z,3168.00
2018-08-24T10:22:43.302Z,3064.00
2018-08-24T10:23:43.302Z,3196.00
2018-08-24T10:25:36.232Z,3448.00
2018-08-24T10:26:36.243Z,3972.00
2018-08-24T10:28:29.196Z,3664.00
2018-08-24T10:29:29.308Z,3884.00
2018-08-24T10:31:22.128Z,4352.00
2018-08-24T10:32:22.143Z,4708.00
2018-08-24T10:34:15.100Z,4048.00
2018-08-24T10:35:15.101Z,4052.00
2018-08-24T10:37:08.049Z,3536.00
2018-08-24T10:38:08.047Z,2056.00
2018-08-24T10:40:00.984Z,3048.00
2018-08-24T10:41:01.089Z,1928.00
2018-08-24T10:42:53.957Z,2912.00
2018-08-24T10:43:53.952Z,2896.00
2018-08-24T10:45:46.887Z,1784.00
2018-08-24T10:46:46.898Z,2908.00
2018-08-24T10:48:39.849Z,2948.00
2018-08-24T10:49:39.849Z,3252.00
2018-08-24T10:51:32.813Z,3648.00
2018-08-24T10:52:32.807Z,3472.00
2018-08-24T10:54:25.773Z,2268.00
2018-08-24T10:55:25.788Z,2120.00
2018-08-24T10:57:18.753Z,2052.00
2018-08-24T10:58:18.706Z,1948.00
2018-08-24T11:00:11.642Z,3696.00
2018-08-24T11:01:11.654Z,4060.00
2018-08-24T11:03:04.612Z,4700.00
2018-08-24T11:04:04.611Z,4864.00
2018-08-24T11:05:57.550Z,4564.00
2018-08-24T11:06:57.572Z,4352.00
2018-08-24T11:08:50.520Z,4576.00
2018-08-24T11:09:50.521Z,4852.00
2018-08-24T11:11:43.455Z,5168.00
2018-08-24T11:12:43.477Z,5172.00
2018-08-24T11:14:36.428Z,5000.00
2018-08-24T11:15:36.431Z,5084.00
2018-08-24T11:17:29.358Z,4268.00
2018-08-24T11:18:29.373Z,5020.00
2018-08-24T11:20:22.331Z,4028.00
2018-08-24T11:21:22.327Z,3952.00
2018-08-24T11:23:15.285Z,2828.00
2018-08-24T11:24:15.283Z,3860.00
2018-08-24T11:26:08.231Z,3336.00
2018-08-24T11:27:08.233Z,3252.00
2018-08-24T11:29:01.196Z,3076.00
2018-08-24T11:30:01.222Z,2960.00
2018-08-24T11:31:54.130Z,2952.00
2018-08-24T11:32:54.141Z,2912.00
2018-08-24T11:34:47.097Z,2880.00
2018-08-24T11:35:47.154Z,2864.00
2018-08-24T11:37:40.026Z,2900.00
2018-08-24T11:38:40.043Z,2884.00
2018-08-24T11:40:32.997Z,2924.00
2018-08-24T11:41:32.994Z,2412.00
2018-08-24T11:43:25.948Z,3008.00
2018-08-24T11:44:25.946Z,3020.00
2018-08-24T11:46:18.889Z,3260.00
2018-08-24T11:47:18.901Z,2008.00
2018-08-24T11:49:11.856Z,3412.00
2018-08-24T11:50:11.857Z,2208.00
2018-08-24T11:52:04.791Z,3272.00
2018-08-24T11:53:04.809Z,3292.00
2018-08-24T11:54:57.766Z,3364.00
2018-08-24T11:55:57.764Z,3508.00
2018-08-24T11:57:50.713Z,3616.00
2018-08-24T11:58:50.729Z,3552.00
2018-08-24T12:00:43.692Z,2612.00
2018-08-24T12:01:43.688Z,2420.00
2018-08-24T12:03:36.644Z,2548.00
2018-08-24T12:04:36.640Z,2684.00
2018-08-24T12:06:29.578Z,3748.00
2018-08-24T12:07:29.592Z,2696.00
2018-08-24T12:09:22.548Z,3424.00
2018-08-24T12:10:22.545Z,3376.00
2018-08-24T12:12:15.511Z,3196.00
2018-08-24T12:13:15.494Z,2032.00
2018-08-24T12:15:08.446Z,3088.00
2018-08-24T12:16:08.448Z,3168.00
2018-08-24T12:18:01.376Z,2824.00
2018-08-24T12:19:01.396Z,3080.00
2018-08-24T12:20:54.354Z,2884.00
2018-08-24T12:21:54.353Z,3116.00
2018-08-24T12:23:47.312Z,2944.00
2018-08-24T12:24:47.307Z,2960.00
2018-08-24T12:26:40.238Z,3188.00
2018-08-24T12:27:40.255Z,3140.00
2018-08-24T12:29:33.208Z,3132.00
2018-08-24T12:30:33.202Z,3024.00
2018-08-24T12:32:26.139Z,2556.00
2018-08-24T12:33:26.159Z,2644.00
2018-08-24T12:35:19.118Z,3464.00
2018-08-24T12:36:19.113Z,3444.00
2018-08-24T12:38:12.128Z,3536.00
2018-08-24T12:39:12.060Z,3476.00
2018-08-24T12:41:05.061Z,3312.00
2018-08-24T12:42:05.010Z,3304.00
2018-08-24T12:43:57.962Z,3600.00
2018-08-24T12:44:57.958Z,3852.00
2018-08-24T12:46:50.894Z,4192.00
2018-08-24T12:47:50.908Z,4432.00
2018-08-24T12:49:43.862Z,4832.00
2018-08-24T12:50:43.861Z,4868.00
2018-08-24T12:52:36.803Z,5168.00
2018-08-24T12:53:36.819Z,4968.00
2018-08-24T12:55:29.765Z,5040.00
2018-08-24T12:56:29.764Z,5140.00
2018-08-24T12:58:22.697Z,5360.00
2018-08-24T12:59:22.715Z,5284.00
2018-08-24T13:01:15.673Z,5124.00
2018-08-24T13:02:15.685Z,5164.00
2018-08-24T13:04:08.627Z,4936.00
2018-08-24T13:05:08.651Z,4768.00
2018-08-24T13:07:01.557Z,4600.00
2018-08-24T13:08:01.574Z,4500.00
2018-08-24T13:09:54.527Z,4496.00
2018-08-24T13:10:54.522Z,4472.00
2018-08-24T13:12:47.459Z,4128.00
2018-08-24T13:13:47.480Z,4176.00
2018-08-24T13:15:40.436Z,4164.00
2018-08-24T13:16:40.435Z,4104.00
2018-08-24T13:18:33.369Z,4056.00
2018-08-24T13:19:33.387Z,4120.00
2018-08-24T13:21:26.408Z,4072.00
2018-08-24T13:22:26.344Z,3892.00
2018-08-24T13:24:19.329Z,3848.00
2018-08-24T13:25:19.374Z,3828.00
2018-08-24T13:27:12.308Z,3896.00
2018-08-24T13:28:12.274Z,3840.00
2018-08-24T13:30:05.226Z,3492.00
2018-08-24T13:31:05.221Z,3584.00
2018-08-24T13:32:58.164Z,3672.00
2018-08-24T13:33:58.184Z,3560.00
2018-08-24T13:35:51.137Z,3516.00
2018-08-24T13:36:51.132Z,3572.00
2018-08-24T13:38:44.065Z,3896.00
2018-08-24T13:39:44.088Z,4056.00
2018-08-24T13:41:37.040Z,4344.00
2018-08-24T13:42:37.033Z,4432.00
2018-08-24T13:44:29.990Z,4628.00
2018-08-24T13:45:29.986Z,4764.00
2018-08-24T13:47:22.923Z,4752.00
2018-08-24T13:48:22.942Z,4772.00
2018-08-24T13:50:15.933Z,4656.00
2018-08-24T13:51:15.898Z,4580.00
2018-08-24T13:53:08.829Z,4672.00
2018-08-24T13:54:08.845Z,4552.00
2018-08-24T13:56:01.818Z,4440.00
2018-08-24T13:57:01.812Z,4408.00
2018-08-24T13:58:54.745Z,3948.00
2018-08-24T13:59:54.801Z,3828.00
2018-08-24T14:01:47.716Z,3712.00
2018-08-24T14:02:47.716Z,3672.00
2018-08-24T14:04:40.675Z,3520.00
2018-08-24T14:05:40.667Z,3376.00
2018-08-24T14:07:33.606Z,3092.00
2018-08-24T14:08:33.624Z,3000.00
2018-08-24T14:10:26.580Z,2708.00
2018-08-24T14:11:26.575Z,2616.00
2018-08-24T14:13:19.518Z,2412.00
2018-08-24T14:14:19.533Z,2200.00
2018-08-24T14:16:12.490Z,1772.00
2018-08-24T14:17:12.478Z,1672.00
2018-08-24T14:19:05.419Z,1720.00
2018-08-24T14:20:05.436Z,1700.00
2018-08-24T14:21:58.384Z,1836.00
2018-08-24T14:22:58.384Z,1752.00
2018-08-24T14:24:51.335Z,1560.00
2018-08-24T14:25:51.331Z,1436.00
2018-08-24T14:27:44.268Z,1448.00
2018-08-24T14:28:44.282Z,1548.00
2018-08-24T14:30:37.235Z,1832.00
2018-08-24T14:31:37.246Z,2056.00
2018-08-24T14:33:30.163Z,2660.00
2018-08-24T14:34:30.185Z,2972.00
2018-08-24T14:36:23.131Z,3428.00
2018-08-24T14:37:23.130Z,3636.00
2018-08-24T14:39:16.094Z,3920.00
2018-08-24T14:40:16.079Z,3948.00
2018-08-24T14:42:09.004Z,3956.00
2018-08-24T14:43:09.025Z,3920.00
2018-08-24T14:45:01.983Z,3776.00
2018-08-24T14:46:01.982Z,3724.00
2018-08-24T14:47:54.915Z,3664.00
2018-08-24T14:48:54.933Z,3612.00
2018-08-24T14:50:47.880Z,3444.00
2018-08-24T14:51:47.883Z,3372.00
2018-08-24T14:53:40.844Z,3236.00
2018-08-24T14:54:40.835Z,3220.00
2018-08-24T14:56:33.774Z,3152.00
2018-08-24T14:57:33.854Z,3124.00
2018-08-24T14:59:26.740Z,3108.00
2018-08-24T15:00:26.740Z,3068.00
2018-08-24T15:02:19.671Z,3100.00
2018-08-24T15:03:19.688Z,3092.00
2018-08-24T15:05:12.641Z,3032.00
2018-08-24T15:06:12.639Z,2992.00
2018-08-24T15:08:05.575Z,2940.00
2018-08-24T15:09:05.589Z,2944.00
2018-08-24T15:10:58.540Z,2932.00
2018-08-24T15:11:58.540Z,2896.00
2018-08-24T15:13:51.488Z,2720.00
2018-08-24T15:14:51.484Z,2700.00
2018-08-24T15:16:44.427Z,2580.00
2018-08-24T15:17:44.439Z,2488.00
2018-08-24T15:19:37.390Z,2384.00
2018-08-24T15:20:37.388Z,2376.00
2018-08-24T15:22:30.335Z,2348.00
2018-08-24T15:23:30.345Z,2364.00
2018-08-24T15:25:23.298Z,2344.00
2018-08-24T15:26:23.298Z,2224.00
2018-08-24T15:28:16.225Z,2212.00
2018-08-24T15:29:16.241Z,2248.00
2018-08-24T15:31:09.190Z,2296.00
2018-08-24T15:32:09.187Z,2312.00
2018-08-24T15:34:02.144Z,2332.00
2018-08-24T15:35:02.164Z,2348.00
2018-08-24T15:36:55.071Z,2320.00
2018-08-24T15:37:55.091Z,2272.00
2018-08-24T15:39:48.058Z,2224.00
2018-08-24T15:40:48.045Z,2212.00
2018-08-24T15:42:40.983Z,2196.00
2018-08-24T15:43:41.002Z,2196.00
2018-08-24T15:45:33.989Z,2208.00
2018-08-24T15:46:33.952Z,2184.00
2018-08-24T15:48:26.884Z,2160.00
2018-08-24T15:49:26.898Z,2116.00
2018-08-24T15:51:19.868Z,2076.00
2018-08-24T15:52:19.859Z,2052.00
2018-08-24T15:54:12.812Z,2020.00
2018-08-24T15:55:12.803Z,1992.00
2018-08-24T15:57:05.738Z,1924.00
2018-08-24T15:58:05.756Z,1888.00
2018-08-24T15:59:58.723Z,1812.00
2018-08-24T16:00:58.704Z,1784.00
2018-08-24T16:02:51.639Z,1712.00
2018-08-24T16:03:51.651Z,1696.00
2018-08-24T16:05:44.612Z,1664.00
2018-08-24T16:06:44.605Z,1652.00
2018-08-24T16:08:37.535Z,1624.00
2018-08-24T16:09:37.546Z,1636.00
2018-08-24T16:11:30.508Z,1672.00
2018-08-24T16:12:30.499Z,1672.00
2018-08-24T16:14:23.447Z,1696.00
2018-08-24T16:15:23.442Z,1712.00
2018-08-24T16:17:16.378Z,1700.00
2018-08-24T16:18:16.396Z,1680.00
2018-08-24T16:20:09.340Z,1656.00
2018-08-24T16:21:09.342Z,1620.00
2018-08-24T16:23:02.271Z,1540.00
2018-08-24T16:24:02.293Z,1496.00
2018-08-24T16:25:55.235Z,1408.00
2018-08-24T16:26:55.242Z,1376.00
2018-08-24T16:28:48.177Z,1368.00
2018-08-24T16:29:48.188Z,1376.00
2018-08-24T16:31:41.140Z,1416.00
2018-08-24T16:32:41.143Z,1428.00
2018-08-24T16:34:34.081Z,1472.00
2018-08-24T16:35:34.078Z,1512.00
2018-08-24T16:37:27.011Z,1548.00
2018-08-24T16:38:27.025Z,1524.00
2018-08-24T16:40:19.977Z,1468.00
2018-08-24T16:41:19.974Z,1444.00
2018-08-24T16:43:12.905Z,1404.00
2018-08-24T16:44:12.920Z,1408.00
2018-08-24T16:46:05.873Z,1404.00
2018-08-24T16:47:05.868Z,1384.00
2018-08-24T16:48:58.797Z,1304.00
2018-08-24T16:49:58.811Z,1272.00
2018-08-24T16:51:51.764Z,1224.00
2018-08-24T16:52:51.758Z,1216.00
2018-08-24T16:54:44.713Z,1212.00
2018-08-24T16:55:44.730Z,1208.00
2018-08-24T16:57:37.637Z,1212.00
2018-08-24T16:58:37.652Z,1212.00
2018-08-24T17:00:30.601Z,1172.00
2018-08-24T17:01:30.596Z,1140.00
2018-08-24T17:03:23.532Z,1064.00
2018-08-24T17:04:23.547Z,1012.00
2018-08-24T17:06:16.500Z,940.00
2018-08-24T17:07:16.495Z,932.00
2018-08-24T17:09:09.420Z,912.00
2018-08-24T17:10:09.438Z,904.00
2018-08-24T17:12:02.402Z,880.00
2018-08-24T17:13:02.498Z,872.00
2018-08-24T17:14:55.345Z,856.00
2018-08-24T17:15:55.341Z,836.00
2018-08-24T17:17:48.267Z,800.00
2018-08-24T17:18:48.286Z,772.00
2018-08-24T17:20:41.233Z,720.00
2018-08-24T17:21:41.237Z,692.00
2018-08-24T17:23:34.162Z,652.00
2018-08-24T17:24:34.174Z,640.00
2018-08-24T17:26:27.128Z,608.00
2018-08-24T17:27:27.121Z,584.00
2018-08-24T17:29:20.054Z,552.00
2018-08-24T17:30:20.080Z,548.00
2018-08-24T17:32:13.014Z,552.00
2018-08-24T17:33:13.010Z,548.00
2018-08-24T17:35:05.965Z,532.00
2018-08-24T17:36:05.961Z,524.00
2018-08-24T17:37:58.891Z,500.00
2018-08-24T17:38:58.903Z,492.00
2018-08-24T17:40:51.849Z,480.00
2018-08-24T17:41:51.926Z,472.00
2018-08-24T17:43:44.781Z,464.00
2018-08-24T17:44:44.795Z,452.00
2018-08-24T17:46:37.741Z,444.00
2018-08-24T17:47:37.738Z,440.00
2018-08-24T17:49:30.666Z,440.00
2018-08-24T17:50:30.681Z,444.00
2018-08-24T17:52:23.653Z,444.00
2018-08-24T17:53:23.628Z,444.00
2018-08-24T17:55:16.580Z,436.00
2018-08-24T17:56:16.577Z,432.00
2018-08-24T17:58:09.502Z,404.00
2018-08-24T17:59:09.516Z,384.00
2018-08-24T18:01:02.463Z,328.00
2018-08-24T18:02:02.464Z,304.00
2018-08-24T18:03:55.445Z,264.00
2018-08-24T18:04:55.402Z,256.00
2018-08-24T18:06:48.352Z,240.00
2018-08-24T18:07:48.346Z,236.00
2018-08-24T18:09:41.276Z,240.00
2018-08-24T18:10:41.291Z,228.00
2018-08-24T18:12:34.235Z,216.00
2018-08-24T18:13:34.236Z,208.00
2018-08-24T18:15:27.195Z,188.00
2018-08-24T18:16:27.192Z,180.00
2018-08-24T18:18:20.121Z,160.00
2018-08-24T18:19:20.138Z,152.00
2018-08-24T18:21:13.100Z,148.00
2018-08-24T18:22:13.094Z,144.00
2018-08-24T18:24:06.016Z,128.00
2018-08-24T18:25:06.033Z,124.00